sensor_id;sensor_type;location;lat;lon;timestamp;pressure;altitude;pressure_sealevel;temperature;humidity
60725;BME280;59881;36.722;-4.462;2022-12-05T00:00:53;100080.88;;;9.41;91.17
60725;BME280;59881;36.722;-4.462;2022-12-05T00:03:19;100449.91;;;11.66;91.17
60725;BME280;59881;36.722;-4.462;2022-12-05T00:05:44;100456.19;;;11.76;90.99
60725;BME280;59881;36.722;-4.462;2022-12-05T00:08:10;100038.22;;;9.25;90.52
60725;BME280;59881;36.722;-4.462;2022-12-05T00:10:36;100050.03;;;9.19;90.34
60725;BME280;59881;36.722;-4.462;2022-12-05T00:13:02;99895.53;;;8.51;90.00
60725;BME280;59881;36.722;-4.462;2022-12-05T00:15:27;100662.38;;;12.09;90.12
60725;BME280;59881;36.722;-4.462;2022-12-05T00:17:53;100484.13;;;12.03;89.81
60725;BME280;59881;36.722;-4.462;2022-12-05T00:20:18;100486.06;;;12.01;89.62
60725;BME280;59881;36.722;-4.462;2022-12-05T00:22:45;100426.03;;;11.56;89.46
60725;BME280;59881;36.722;-4.462;2022-12-05T00:25:10;100474.03;;;11.73;89.12
60725;BME280;59881;36.722;-4.462;2022-12-05T00:27:36;100507.88;;;11.92;89.03
60725;BME280;59881;36.722;-4.462;2022-12-05T00:30:02;100086.16;;;9.28;89.11
60725;BME280;59881;36.722;-4.462;2022-12-05T00:32:28;100016.00;;;8.92;88.75
60725;BME280;59881;36.722;-4.462;2022-12-05T00:34:54;100239.28;;;10.31;89.03
60725;BME280;59881;36.722;-4.462;2022-12-05T00:37:20;100070.06;;;9.33;89.12
60725;BME280;59881;36.722;-4.462;2022-12-05T00:39:45;100499.50;;;11.98;89.63
60725;BME280;59881;36.722;-4.462;2022-12-05T00:42:11;100373.91;;;11.25;89.29
60725;BME280;59881;36.722;-4.462;2022-12-05T00:44:36;100431.91;;;11.60;89.30
60725;BME280;59881;36.722;-4.462;2022-12-05T00:47:02;100731.69;;;11.99;89.36
60725;BME280;59881;36.722;-4.462;2022-12-05T00:49:28;100450.53;;;11.70;89.07
60725;BME280;59881;36.722;-4.462;2022-12-05T00:51:53;99824.50;;;7.90;88.77
60725;BME280;59881;36.722;-4.462;2022-12-05T00:54:19;100102.09;;;8.88;88.68
60725;BME280;59881;36.722;-4.462;2022-12-05T00:56:44;100504.69;;;11.27;88.96
60725;BME280;59881;36.722;-4.462;2022-12-05T00:59:18;100470.84;;;11.80;89.23
60725;BME280;59881;36.722;-4.462;2022-12-05T01:01:45;100481.75;;;11.76;88.99
60725;BME280;59881;36.722;-4.462;2022-12-05T01:04:16;100465.41;;;11.71;89.31
60725;BME280;59881;36.722;-4.462;2022-12-05T01:06:42;100465.66;;;11.68;89.20
60725;BME280;59881;36.722;-4.462;2022-12-05T01:09:10;99869.34;;;7.34;88.84
60725;BME280;59881;36.722;-4.462;2022-12-05T01:11:37;100059.50;;;9.09;89.04
60725;BME280;59881;36.722;-4.462;2022-12-05T01:14:03;100449.31;;;11.63;89.90
60725;BME280;59881;36.722;-4.462;2022-12-05T01:16:31;100457.25;;;11.63;89.91
60725;BME280;59881;36.722;-4.462;2022-12-05T01:18:59;100421.78;;;11.43;89.65
60725;BME280;59881;36.722;-4.462;2022-12-05T01:21:26;100389.09;;;11.21;90.16
60725;BME280;59881;36.722;-4.462;2022-12-05T01:23:51;100452.16;;;11.59;90.02
60725;BME280;59881;36.722;-4.462;2022-12-05T01:26:19;100667.69;;;11.59;90.11
60725;BME280;59881;36.722;-4.462;2022-12-05T01:28:45;100066.56;;;9.08;89.79
60725;BME280;59881;36.722;-4.462;2022-12-05T01:31:35;100437.91;;;11.62;90.31
60725;BME280;59881;36.722;-4.462;2022-12-05T01:34:03;100401.41;;;11.45;90.76
60725;BME280;59881;36.722;-4.462;2022-12-05T01:36:29;100425.97;;;11.69;90.39
60725;BME280;59881;36.722;-4.462;2022-12-05T01:38:55;100425.59;;;11.74;90.45
60725;BME280;59881;36.722;-4.462;2022-12-05T01:41:27;100419.97;;;11.78;90.68
60725;BME280;59881;36.722;-4.462;2022-12-05T01:44:02;100430.19;;;11.83;90.56
60725;BME280;59881;36.722;-4.462;2022-12-05T01:46:35;100366.53;;;11.52;90.86
60725;BME280;59881;36.722;-4.462;2022-12-05T01:49:14;100440.69;;;11.96;90.48
60725;BME280;59881;36.722;-4.462;2022-12-05T01:51:45;100583.84;;;11.99;90.82
60725;BME280;59881;36.722;-4.462;2022-12-05T01:54:11;100461.31;;;12.02;90.28
60725;BME280;59881;36.722;-4.462;2022-12-05T01:56:39;99948.28;;;8.84;89.94
60725;BME280;59881;36.722;-4.462;2022-12-05T01:59:08;100441.25;;;11.88;90.16
60725;BME280;59881;36.722;-4.462;2022-12-05T02:01:34;100485.97;;;12.14;90.01
60725;BME280;59881;36.722;-4.462;2022-12-05T02:04:01;100488.34;;;12.17;89.81
60725;BME280;59881;36.722;-4.462;2022-12-05T02:06:27;100461.47;;;12.00;89.37
60725;BME280;59881;36.722;-4.462;2022-12-05T02:08:52;100491.38;;;12.24;89.22
60725;BME280;59881;36.722;-4.462;2022-12-05T02:11:19;100477.44;;;12.21;88.96
60725;BME280;59881;36.722;-4.462;2022-12-05T02:14:43;100493.19;;;12.34;88.63
60725;BME280;59881;36.722;-4.462;2022-12-05T02:20:03;100520.72;;;12.43;88.34
60725;BME280;59881;36.722;-4.462;2022-12-05T02:23:16;100553.25;;;12.43;88.06
60725;BME280;59881;36.722;-4.462;2022-12-05T02:26:03;100573.19;;;12.48;88.01
60725;BME280;59881;36.722;-4.462;2022-12-05T02:28:44;100590.03;;;12.47;87.84
60725;BME280;59881;36.722;-4.462;2022-12-05T02:31:33;100117.78;;;9.52;87.76
60725;BME280;59881;36.722;-4.462;2022-12-05T02:39:49;100517.63;;;12.03;88.99
60725;BME280;59881;36.722;-4.462;2022-12-05T02:45:09;100564.53;;;12.34;89.65
60725;BME280;59881;36.722;-4.462;2022-12-05T02:47:40;100415.91;;;11.39;89.48
60725;BME280;59881;36.722;-4.462;2022-12-05T02:50:10;100143.47;;;9.73;89.48
60725;BME280;59881;36.722;-4.462;2022-12-05T02:52:38;100501.06;;;12.00;89.75
60725;BME280;59881;36.722;-4.462;2022-12-05T02:55:06;100613.59;;;12.72;89.84
60725;BME280;59881;36.722;-4.462;2022-12-05T02:57:34;100605.44;;;12.75;89.77
60725;BME280;59881;36.722;-4.462;2022-12-05T03:00:00;100196.44;;;10.29;89.44
60725;BME280;59881;36.722;-4.462;2022-12-05T03:02:33;100052.81;;;9.42;89.67
60725;BME280;59881;36.722;-4.462;2022-12-05T03:07:59;100588.25;;;12.81;90.18
60725;BME280;59881;36.722;-4.462;2022-12-05T03:10:28;100558.69;;;12.65;90.02
60725;BME280;59881;36.722;-4.462;2022-12-05T03:13:05;100581.78;;;12.85;90.14
60725;BME280;59881;36.722;-4.462;2022-12-05T03:15:37;100574.69;;;12.86;90.19
60725;BME280;59881;36.722;-4.462;2022-12-05T03:18:16;100268.22;;;11.04;89.97
60725;BME280;59881;36.722;-4.462;2022-12-05T03:20:58;100565.66;;;12.88;90.11
60725;BME280;59881;36.722;-4.462;2022-12-05T03:23:39;100550.03;;;12.85;90.26
60725;BME280;59881;36.722;-4.462;2022-12-05T03:26:17;100090.19;;;10.06;90.21
60725;BME280;59881;36.722;-4.462;2022-12-05T03:28:55;100541.13;;;12.86;90.64
60725;BME280;59881;36.722;-4.462;2022-12-05T03:31:51;100540.91;;;12.89;90.98
60725;BME280;59881;36.722;-4.462;2022-12-05T03:34:31;100416.38;;;11.44;90.58
60725;BME280;59881;36.722;-4.462;2022-12-05T03:37:06;100546.56;;;12.96;90.29
60725;BME280;59881;36.722;-4.462;2022-12-05T03:39:35;100569.28;;;12.98;89.85
60725;BME280;59881;36.722;-4.462;2022-12-05T03:47:41;100469.75;;;13.09;88.67
60725;BME280;59881;36.722;-4.462;2022-12-05T03:50:23;100459.88;;;13.11;88.56
60725;BME280;59881;36.722;-4.462;2022-12-05T03:53:01;100475.50;;;13.14;87.99
60725;BME280;59881;36.722;-4.462;2022-12-05T03:55:31;100480.81;;;13.02;87.74
60725;BME280;59881;36.722;-4.462;2022-12-05T03:58:01;100506.25;;;13.15;87.08
60725;BME280;59881;36.722;-4.462;2022-12-05T04:00:34;100467.72;;;12.90;86.65
60725;BME280;59881;36.722;-4.462;2022-12-05T04:03:09;100515.16;;;13.14;86.60
60725;BME280;59881;36.722;-4.462;2022-12-05T04:05:50;100502.78;;;13.14;86.53
60725;BME280;59881;36.722;-4.462;2022-12-05T04:08:30;100508.91;;;13.15;86.42
60725;BME280;59881;36.722;-4.462;2022-12-05T04:11:02;100520.34;;;13.15;86.36
60725;BME280;59881;36.722;-4.462;2022-12-05T04:13:43;100541.34;;;13.17;86.55
60725;BME280;59881;36.722;-4.462;2022-12-05T04:16:24;100543.78;;;13.20;86.66
60725;BME280;59881;36.722;-4.462;2022-12-05T04:19:18;100537.50;;;13.21;86.71
60725;BME280;59881;36.722;-4.462;2022-12-05T04:21:50;100404.00;;;12.38;86.60
60725;BME280;59881;36.722;-4.462;2022-12-05T04:24:26;100134.94;;;10.66;86.50
60725;BME280;59881;36.722;-4.462;2022-12-05T04:27:27;100543.53;;;13.12;87.11
60725;BME280;59881;36.722;-4.462;2022-12-05T04:30:09;100522.16;;;13.03;87.53
60725;BME280;59881;36.722;-4.462;2022-12-05T04:32:50;100531.75;;;12.37;87.86
60725;BME280;59881;36.722;-4.462;2022-12-05T04:35:24;100471.09;;;12.92;88.10
60725;BME280;59881;36.722;-4.462;2022-12-05T04:37:53;100474.22;;;12.63;88.57
60725;BME280;59881;36.722;-4.462;2022-12-05T04:40:30;100259.81;;;11.79;88.74
60725;BME280;59881;36.722;-4.462;2022-12-05T04:42:59;99763.19;;;8.77;89.20
60725;BME280;59881;36.722;-4.462;2022-12-05T04:45:26;100007.69;;;10.19;90.10
60725;BME280;59881;36.722;-4.462;2022-12-05T04:47:57;100353.31;;;12.33;91.21
60725;BME280;59881;36.722;-4.462;2022-12-05T04:50:28;100258.16;;;11.67;91.46
60725;BME280;59881;36.722;-4.462;2022-12-05T04:52:56;100236.44;;;11.29;91.96
60725;BME280;59881;36.722;-4.462;2022-12-05T04:55:23;100432.41;;;12.68;92.43
60725;BME280;59881;36.722;-4.462;2022-12-05T05:00:34;100410.22;;;12.48;92.23
60725;BME280;59881;36.722;-4.462;2022-12-05T05:03:19;100393.16;;;12.41;91.99
60725;BME280;59881;36.722;-4.462;2022-12-05T05:05:48;100446.50;;;12.69;91.79
60725;BME280;59881;36.722;-4.462;2022-12-05T05:08:18;100414.78;;;12.46;91.56
60725;BME280;59881;36.722;-4.462;2022-12-05T05:10:56;100023.56;;;10.06;91.46
60725;BME280;59881;36.722;-4.462;2022-12-05T05:13:26;100366.53;;;12.21;91.44
60725;BME280;59881;36.722;-4.462;2022-12-05T05:15:52;100339.75;;;12.04;91.19
60725;BME280;59881;36.722;-4.462;2022-12-05T05:18:17;100428.47;;;12.51;91.25
60725;BME280;59881;36.722;-4.462;2022-12-05T05:20:43;100433.28;;;12.46;91.15
60725;BME280;59881;36.722;-4.462;2022-12-05T05:23:08;99824.28;;;8.68;90.99
60725;BME280;59881;36.722;-4.462;2022-12-05T05:25:34;100295.09;;;11.67;91.34
60725;BME280;59881;36.722;-4.462;2022-12-05T05:27:59;100401.97;;;11.84;91.65
60725;BME280;59881;36.722;-4.462;2022-12-05T05:30:25;100428.13;;;12.33;92.06
60725;BME280;59881;36.722;-4.462;2022-12-05T05:32:51;100437.09;;;12.31;92.37
60725;BME280;59881;36.722;-4.462;2022-12-05T05:35:16;99990.63;;;9.41;92.05
60725;BME280;59881;36.722;-4.462;2022-12-05T05:37:42;100443.47;;;12.28;92.78
60725;BME280;59881;36.722;-4.462;2022-12-05T05:40:10;100439.75;;;12.31;93.12
60725;BME280;59881;36.722;-4.462;2022-12-05T05:42:41;100300.09;;;11.47;93.32
60725;BME280;59881;36.722;-4.462;2022-12-05T05:45:07;100435.31;;;12.31;93.72
60725;BME280;59881;36.722;-4.462;2022-12-05T05:47:33;100385.00;;;11.99;93.68
60725;BME280;59881;36.722;-4.462;2022-12-05T05:49:58;99966.97;;;9.41;93.64
60725;BME280;59881;36.722;-4.462;2022-12-05T05:52:24;100529.16;;;12.13;94.02
60725;BME280;59881;36.722;-4.462;2022-12-05T05:54:49;100405.19;;;12.11;94.17
60725;BME280;59881;36.722;-4.462;2022-12-05T05:57:15;100408.25;;;11.47;94.06
60725;BME280;59881;36.722;-4.462;2022-12-05T05:59:40;100245.72;;;11.11;94.23
60725;BME280;59881;36.722;-4.462;2022-12-05T06:02:06;100533.91;;;12.32;94.75
60725;BME280;59881;36.722;-4.462;2022-12-05T06:04:33;100484.97;;;12.04;94.79
60725;BME280;59881;36.722;-4.462;2022-12-05T06:06:59;100411.19;;;12.13;94.57
60725;BME280;59881;36.722;-4.462;2022-12-05T06:09:24;100447.34;;;12.35;94.64
60725;BME280;59881;36.722;-4.462;2022-12-05T06:11:50;100410.09;;;12.16;94.61
60725;BME280;59881;36.722;-4.462;2022-12-05T06:14:15;100470.16;;;12.36;94.64
60725;BME280;59881;36.722;-4.462;2022-12-05T06:16:41;100167.38;;;10.66;94.82
60725;BME280;59881;36.722;-4.462;2022-12-05T06:19:06;99566.75;;;6.90;94.36
60725;BME280;59881;36.722;-4.462;2022-12-05T06:21:32;100378.00;;;11.87;94.59
60725;BME280;59881;36.722;-4.462;2022-12-05T06:23:57;100421.63;;;12.26;94.82
60725;BME280;59881;36.722;-4.462;2022-12-05T06:26:23;100448.19;;;12.47;94.67
60725;BME280;59881;36.722;-4.462;2022-12-05T06:28:49;100452.50;;;12.48;94.70
60725;BME280;59881;36.722;-4.462;2022-12-05T06:31:17;100449.00;;;12.48;94.63
60725;BME280;59881;36.722;-4.462;2022-12-05T06:33:44;100420.44;;;12.19;94.42
60725;BME280;59881;36.722;-4.462;2022-12-05T06:36:11;100463.66;;;12.40;94.55
60725;BME280;59881;36.722;-4.462;2022-12-05T06:38:37;100397.13;;;12.01;94.27
60725;BME280;59881;36.722;-4.462;2022-12-05T06:41:04;100464.75;;;12.38;94.56
60725;BME280;59881;36.722;-4.462;2022-12-05T06:43:31;100451.41;;;12.39;94.72
60725;BME280;59881;36.722;-4.462;2022-12-05T06:45:56;100279.22;;;11.44;94.67
60725;BME280;59881;36.722;-4.462;2022-12-05T06:48:22;100235.19;;;11.22;94.69
60725;BME280;59881;36.722;-4.462;2022-12-05T06:50:51;100442.16;;;12.45;94.98
60725;BME280;59881;36.722;-4.462;2022-12-05T06:53:18;100445.66;;;12.46;94.76
60725;BME280;59881;36.722;-4.462;2022-12-05T06:55:53;100435.06;;;12.46;94.76
60725;BME280;59881;36.722;-4.462;2022-12-05T06:58:19;100293.16;;;11.57;94.48
60725;BME280;59881;36.722;-4.462;2022-12-05T07:00:44;100440.47;;;12.44;94.52
60725;BME280;59881;36.722;-4.462;2022-12-05T07:03:29;100024.13;;;9.98;94.25
60725;BME280;59881;36.722;-4.462;2022-12-05T07:05:54;100370.00;;;12.11;94.37
60725;BME280;59881;36.722;-4.462;2022-12-05T07:08:20;100312.72;;;11.77;94.32
60725;BME280;59881;36.722;-4.462;2022-12-05T07:10:52;100400.13;;;12.31;94.30
60725;BME280;59881;36.722;-4.462;2022-12-05T07:13:18;100436.88;;;12.56;94.22
60725;BME280;59881;36.722;-4.462;2022-12-05T07:15:47;100441.91;;;12.59;94.10
60725;BME280;59881;36.722;-4.462;2022-12-05T07:18:14;100345.28;;;12.00;93.65
60725;BME280;59881;36.722;-4.462;2022-12-05T07:20:40;100447.69;;;12.65;93.71
60725;BME280;59881;36.722;-4.462;2022-12-05T07:23:06;100446.59;;;12.67;93.58
60725;BME280;59881;36.722;-4.462;2022-12-05T07:25:32;100452.63;;;12.69;93.47
60725;BME280;59881;36.722;-4.462;2022-12-05T07:27:57;100452.34;;;12.72;93.10
60725;BME280;59881;36.722;-4.462;2022-12-05T07:30:23;100048.72;;;10.21;92.87
60725;BME280;59881;36.722;-4.462;2022-12-05T07:32:48;100408.44;;;12.49;92.97
60725;BME280;59881;36.722;-4.462;2022-12-05T07:35:14;100389.19;;;12.24;92.98
60725;BME280;59881;36.722;-4.462;2022-12-05T07:37:40;100461.38;;;12.81;93.02
60725;BME280;59881;36.722;-4.462;2022-12-05T07:40:06;100459.44;;;12.83;92.59
60725;BME280;59881;36.722;-4.462;2022-12-05T07:42:32;99912.53;;;9.54;92.13
60725;BME280;59881;36.722;-4.462;2022-12-05T07:44:57;100460.03;;;12.87;92.39
60725;BME280;59881;36.722;-4.462;2022-12-05T07:47:23;100451.84;;;12.90;92.01
60725;BME280;59881;36.722;-4.462;2022-12-05T07:49:48;100176.47;;;11.20;91.55
60725;BME280;59881;36.722;-4.462;2022-12-05T07:52:14;100593.06;;;12.98;91.87
60725;BME280;59881;36.722;-4.462;2022-12-05T07:54:39;100452.44;;;13.04;91.23
60725;BME280;59881;36.722;-4.462;2022-12-05T07:57:05;100027.63;;;10.45;90.78
60725;BME280;59881;36.722;-4.462;2022-12-05T07:59:30;99918.84;;;9.87;90.40
60725;BME280;59881;36.722;-4.462;2022-12-05T08:01:56;99923.41;;;9.96;90.17
60725;BME280;59881;36.722;-4.462;2022-12-05T08:04:21;100369.84;;;12.69;90.45
60725;BME280;59881;36.722;-4.462;2022-12-05T08:06:47;100512.75;;;13.33;90.35
60725;BME280;59881;36.722;-4.462;2022-12-05T08:09:12;100391.34;;;13.08;89.73
60725;BME280;59881;36.722;-4.462;2022-12-05T08:11:38;99992.22;;;10.72;88.98
60725;BME280;59881;36.722;-4.462;2022-12-05T08:14:05;100441.00;;;13.48;88.79
60725;BME280;59881;36.722;-4.462;2022-12-05T08:16:31;100439.53;;;13.55;88.45
60725;BME280;59881;36.722;-4.462;2022-12-05T08:18:59;100369.53;;;13.27;87.93
60725;BME280;59881;36.722;-4.462;2022-12-05T08:21:26;100426.72;;;13.71;87.51
60725;BME280;59881;36.722;-4.462;2022-12-05T08:23:52;100413.91;;;13.76;86.80
60725;BME280;59881;36.722;-4.462;2022-12-05T08:26:26;100408.38;;;13.79;86.14
60725;BME280;59881;36.722;-4.462;2022-12-05T08:29:09;100414.84;;;13.86;85.79
60725;BME280;59881;36.722;-4.462;2022-12-05T08:31:39;100367.72;;;13.59;85.54
60725;BME280;59881;36.722;-4.462;2022-12-05T08:34:05;100503.03;;;13.87;85.25
60725;BME280;59881;36.722;-4.462;2022-12-05T08:36:31;100398.56;;;13.91;84.91
60725;BME280;59881;36.722;-4.462;2022-12-05T08:38:59;100405.81;;;13.99;84.63
60725;BME280;59881;36.722;-4.462;2022-12-05T08:41:26;100433.84;;;14.22;84.54
60725;BME280;59881;36.722;-4.462;2022-12-05T08:44:00;100397.13;;;14.08;84.20
60725;BME280;59881;36.722;-4.462;2022-12-05T08:46:28;100361.31;;;13.41;83.74
60725;BME280;59881;36.722;-4.462;2022-12-05T08:48:53;100474.25;;;14.45;83.09
60725;BME280;59881;36.722;-4.462;2022-12-05T08:51:19;100396.59;;;15.05;82.20
60725;BME280;59881;36.722;-4.462;2022-12-05T08:53:45;100404.78;;;15.99;80.18
60725;BME280;59881;36.722;-4.462;2022-12-05T08:56:11;100424.22;;;17.56;76.07
60725;BME280;59881;36.722;-4.462;2022-12-05T08:58:37;100411.81;;;18.86;71.19
60725;BME280;59881;36.722;-4.462;2022-12-05T09:01:10;99689.59;;;15.53;65.45
60725;BME280;59881;36.722;-4.462;2022-12-05T09:03:37;100396.88;;;21.56;60.71
60725;BME280;59881;36.722;-4.462;2022-12-05T09:06:08;100033.78;;;22.66;49.95
60725;BME280;59881;36.722;-4.462;2022-12-05T09:08:34;100393.28;;;27.04;42.88
60725;BME280;59881;36.722;-4.462;2022-12-05T09:11:07;100445.50;;;27.94;39.91
60725;BME280;59881;36.722;-4.462;2022-12-05T09:13:33;100346.09;;;28.56;36.89
60725;BME280;59881;36.722;-4.462;2022-12-05T09:16:07;100099.47;;;29.15;34.87
60725;BME280;59881;36.722;-4.462;2022-12-05T09:18:33;100403.06;;;33.15;30.33
60725;BME280;59881;36.722;-4.462;2022-12-05T09:21:13;100532.22;;;32.38;30.31
60725;BME280;59881;36.722;-4.462;2022-12-05T09:23:39;100163.38;;;28.52;33.09
60725;BME280;59881;36.722;-4.462;2022-12-05T09:26:08;100438.78;;;30.03;33.85
60725;BME280;59881;36.722;-4.462;2022-12-05T09:28:35;100375.69;;;27.77;36.59
60725;BME280;59881;36.722;-4.462;2022-12-05T09:31:03;100149.22;;;24.25;39.94
60725;BME280;59881;36.722;-4.462;2022-12-05T09:33:30;100357.59;;;24.03;42.83
60725;BME280;59881;36.722;-4.462;2022-12-05T09:35:56;100451.84;;;23.88;44.64
60725;BME280;59881;36.722;-4.462;2022-12-05T09:38:22;100105.88;;;21.02;46.61
60725;BME280;59881;36.722;-4.462;2022-12-05T09:41:09;100524.53;;;23.51;47.51
60725;BME280;59881;36.722;-4.462;2022-12-05T09:43:59;100445.75;;;25.32;44.77
60725;BME280;59881;36.722;-4.462;2022-12-05T09:46:59;100357.94;;;27.81;39.90
60725;BME280;59881;36.722;-4.462;2022-12-05T09:49:27;100045.78;;;26.47;36.81
60725;BME280;59881;36.722;-4.462;2022-12-05T09:51:56;100417.50;;;30.47;34.23
60725;BME280;59881;36.722;-4.462;2022-12-05T09:54:22;100139.25;;;29.09;33.07
60725;BME280;59881;36.722;-4.462;2022-12-05T09:56:50;100395.16;;;31.48;31.31
60725;BME280;59881;36.722;-4.462;2022-12-05T09:59:18;100477.00;;;34.53;27.95
60725;BME280;59881;36.722;-4.462;2022-12-05T10:05:12;100076.72;;;25.94;35.44
60725;BME280;59881;36.722;-4.462;2022-12-05T10:08:11;100443.59;;;27.12;37.95
60725;BME280;59881;36.722;-4.462;2022-12-05T10:10:59;100450.94;;;26.40;39.85
60725;BME280;59881;36.722;-4.462;2022-12-05T10:16:03;100419.63;;;30.33;33.08
60725;BME280;59881;36.722;-4.462;2022-12-05T10:24:02;100455.78;;;28.47;34.17
60725;BME280;59881;36.722;-4.462;2022-12-05T10:26:45;100439.03;;;27.06;36.29
60725;BME280;59881;36.722;-4.462;2022-12-05T10:29:37;100460.09;;;25.86;38.14
60725;BME280;59881;36.722;-4.462;2022-12-05T10:32:22;100435.41;;;25.49;38.84
60725;BME280;59881;36.722;-4.462;2022-12-05T10:34:53;100458.44;;;25.71;38.92
60725;BME280;59881;36.722;-4.462;2022-12-05T10:37:24;100423.78;;;26.21;38.93
60725;BME280;59881;36.722;-4.462;2022-12-05T10:39:51;100447.94;;;28.02;35.87
60725;BME280;59881;36.722;-4.462;2022-12-05T10:42:35;100404.97;;;26.53;36.81
60725;BME280;59881;36.722;-4.462;2022-12-05T10:45:21;100446.22;;;25.49;39.33
60725;BME280;59881;36.722;-4.462;2022-12-05T10:47:48;99844.25;;;21.95;38.56
60725;BME280;59881;36.722;-4.462;2022-12-05T10:50:32;100437.72;;;24.84;40.28
60725;BME280;59881;36.722;-4.462;2022-12-05T10:52:59;100444.31;;;23.77;42.17
60725;BME280;59881;36.722;-4.462;2022-12-05T10:55:46;100441.78;;;22.59;44.57
60725;BME280;59881;36.722;-4.462;2022-12-05T10:58:21;100132.53;;;20.19;46.16
60725;BME280;59881;36.722;-4.462;2022-12-05T11:00:52;100442.56;;;21.85;46.99
60725;BME280;59881;36.722;-4.462;2022-12-05T11:03:55;100445.34;;;21.69;48.04
60725;BME280;59881;36.722;-4.462;2022-12-05T11:06:21;100451.22;;;21.49;48.36
60725;BME280;59881;36.722;-4.462;2022-12-05T11:08:55;100452.13;;;21.42;49.33
60725;BME280;59881;36.722;-4.462;2022-12-05T11:11:25;100417.00;;;21.28;49.77
60725;BME280;59881;36.722;-4.462;2022-12-05T11:14:05;100438.53;;;21.43;49.88
60725;BME280;59881;36.722;-4.462;2022-12-05T11:16:32;100444.22;;;21.40;50.22
60725;BME280;59881;36.722;-4.462;2022-12-05T11:21:49;100406.25;;;20.82;51.47
60725;BME280;59881;36.722;-4.462;2022-12-05T11:24:35;100435.22;;;20.79;52.30
60725;BME280;59881;36.722;-4.462;2022-12-05T11:29:44;100417.97;;;20.42;53.73
60725;BME280;59881;36.722;-4.462;2022-12-05T11:32:22;100435.88;;;20.25;54.26
60725;BME280;59881;36.722;-4.462;2022-12-05T11:37:19;100419.91;;;19.92;55.66
60725;BME280;59881;36.722;-4.462;2022-12-05T11:39:47;100394.53;;;19.55;57.02
60725;BME280;59881;36.722;-4.462;2022-12-05T11:42:35;100419.78;;;19.69;57.16
60725;BME280;59881;36.722;-4.462;2022-12-05T11:48:02;100393.38;;;19.58;58.22
60725;BME280;59881;36.722;-4.462;2022-12-05T12:11:46;100376.44;;;18.84;60.90
60725;BME280;59881;36.722;-4.462;2022-12-05T12:36:14;100010.44;;;15.20;64.93
60725;BME280;59881;36.722;-4.462;2022-12-05T12:41:54;100319.66;;;17.80;65.33
60725;BME280;59881;36.722;-4.462;2022-12-05T12:47:01;100239.91;;;17.52;64.82
60725;BME280;59881;36.722;-4.462;2022-12-05T12:52:27;99901.91;;;15.27;64.64
60725;BME280;59881;36.722;-4.462;2022-12-05T13:03:29;100113.63;;;17.21;62.10
60725;BME280;59881;36.722;-4.462;2022-12-05T13:09:09;100171.44;;;17.79;61.82
60725;BME280;59881;36.722;-4.462;2022-12-05T13:11:38;100271.97;;;18.54;61.47
60725;BME280;59881;36.722;-4.462;2022-12-05T13:14:12;100324.91;;;18.32;61.39
60725;BME280;59881;36.722;-4.462;2022-12-05T13:16:42;100267.13;;;18.57;61.37
60725;BME280;59881;36.722;-4.462;2022-12-05T13:21:56;100157.50;;;17.85;61.57
60725;BME280;59881;36.722;-4.462;2022-12-05T13:24:26;100116.13;;;16.70;61.43
60725;BME280;59881;36.722;-4.462;2022-12-05T13:26:52;99546.91;;;13.90;61.54
60725;BME280;59881;36.722;-4.462;2022-12-05T13:29:30;100282.13;;;18.42;61.95
60725;BME280;59881;36.722;-4.462;2022-12-05T13:31:57;100275.75;;;18.35;62.04
60725;BME280;59881;36.722;-4.462;2022-12-05T13:34:44;100289.22;;;18.25;62.35
60725;BME280;59881;36.722;-4.462;2022-12-05T13:37:18;100206.63;;;16.96;62.23
60725;BME280;59881;36.722;-4.462;2022-12-05T13:40:04;100281.63;;;18.04;62.76
60725;BME280;59881;36.722;-4.462;2022-12-05T13:42:59;100325.66;;;17.56;63.50
60725;BME280;59881;36.722;-4.462;2022-12-05T13:45:25;99661.09;;;14.05;63.64
60725;BME280;59881;36.722;-4.462;2022-12-05T13:48:00;100285.28;;;17.95;64.38
60725;BME280;59881;36.722;-4.462;2022-12-05T13:50:48;100286.78;;;17.97;64.40
60725;BME280;59881;36.722;-4.462;2022-12-05T13:53:35;100290.41;;;17.88;64.94
60725;BME280;59881;36.722;-4.462;2022-12-05T13:56:23;100263.13;;;17.68;65.17
60725;BME280;59881;36.722;-4.462;2022-12-05T13:58:55;100283.34;;;17.79;65.60
60725;BME280;59881;36.722;-4.462;2022-12-05T14:04:00;100264.13;;;17.67;66.06
60725;BME280;59881;36.722;-4.462;2022-12-05T14:17:43;100261.78;;;17.90;66.18
60725;BME280;59881;36.722;-4.462;2022-12-05T14:20:24;100260.78;;;17.91;66.42
60725;BME280;59881;36.722;-4.462;2022-12-05T14:34:21;100077.78;;;16.54;67.54
60725;BME280;59881;36.722;-4.462;2022-12-05T14:39:51;99752.00;;;14.23;68.75
60725;BME280;59881;36.722;-4.462;2022-12-05T14:42:41;100245.28;;;17.08;69.52
60725;BME280;59881;36.722;-4.462;2022-12-05T14:45:31;100334.44;;;16.76;70.27
60725;BME280;59881;36.722;-4.462;2022-12-05T14:47:59;99770.75;;;13.84;70.60
60725;BME280;59881;36.722;-4.462;2022-12-05T15:01:26;100307.88;;;17.12;71.82
60725;BME280;59881;36.722;-4.462;2022-12-05T15:04:21;100318.03;;;17.17;71.86
60725;BME280;59881;36.722;-4.462;2022-12-05T15:09:53;100317.13;;;17.08;72.01
60725;BME280;59881;36.722;-4.462;2022-12-05T15:17:45;99986.31;;;14.01;73.34
60725;BME280;59881;36.722;-4.462;2022-12-05T15:23:46;100359.31;;;16.67;74.57
60725;BME280;59881;36.722;-4.462;2022-12-05T15:26:40;100374.25;;;16.68;74.82
60725;BME280;59881;36.722;-4.462;2022-12-05T15:29:23;100358.50;;;16.57;75.40
60725;BME280;59881;36.722;-4.462;2022-12-05T15:36:56;99999.75;;;14.27;76.57
60725;BME280;59881;36.722;-4.462;2022-12-05T15:39:24;100455.19;;;16.66;77.11
60725;BME280;59881;36.722;-4.462;2022-12-05T15:41:51;100395.84;;;16.65;77.41
60725;BME280;59881;36.722;-4.462;2022-12-05T15:44:18;100056.91;;;14.59;77.82
60725;BME280;59881;36.722;-4.462;2022-12-05T15:46:44;100032.53;;;13.49;78.26
60725;BME280;59881;36.722;-4.462;2022-12-05T15:49:20;100398.16;;;16.50;79.24